sensor_id;sensor_type;location;lat;lon;timestamp;P1;durP1;ratioP1;P2;durP2;ratioP2
59504;SDS011;45321;53.200;5.814;2023-01-19T00:01:23;8.38;;;1.10;;
59504;SDS011;45321;53.200;5.814;2023-01-19T00:03:50;8.90;;;1.08;;
59504;SDS011;45321;53.200;5.814;2023-01-19T00:06:15;10.45;;;1.17;;
59504;SDS011;45321;53.200;5.814;2023-01-19T00:08:42;9.15;;;1.00;;
59504;SDS011;45321;53.200;5.814;2023-01-19T00:11:10;12.15;;;1.60;;
59504;SDS011;45321;53.200;5.814;2023-01-19T00:13:37;7.90;;;1.08;;
59504;SDS011;45321;53.200;5.814;2023-01-19T00:16:03;10.85;;;1.45;;
59504;SDS011;45321;53.200;5.814;2023-01-19T00:18:30;6.78;;;1.40;;
59504;SDS011;45321;53.200;5.814;2023-01-19T00:20:56;9.63;;;1.00;;
59504;SDS011;45321;53.200;5.814;2023-01-19T00:23:22;7.50;;;1.33;;
59504;SDS011;45321;53.200;5.814;2023-01-19T00:25:48;7.38;;;1.15;;
59504;SDS011;45321;53.200;5.814;2023-01-19T00:28:16;6.55;;;1.00;;
59504;SDS011;45321;53.200;5.814;2023-01-19T00:30:42;11.63;;;0.93;;
59504;SDS011;45321;53.200;5.814;2023-01-19T00:33:11;7.65;;;0.90;;
59504;SDS011;45321;53.200;5.814;2023-01-19T00:35:40;11.25;;;1.20;;
59504;SDS011;45321;53.200;5.814;2023-01-19T00:38:09;11.52;;;1.25;;
59504;SDS011;45321;53.200;5.814;2023-01-19T00:40:36;7.82;;;1.25;;
59504;SDS011;45321;53.200;5.814;2023-01-19T00:43:02;6.78;;;1.00;;
59504;SDS011;45321;53.200;5.814;2023-01-19T00:45:29;7.65;;;0.93;;
59504;SDS011;45321;53.200;5.814;2023-01-19T00:47:55;7.22;;;1.10;;
59504;SDS011;45321;53.200;5.814;2023-01-19T00:50:21;10.60;;;1.35;;
59504;SDS011;45321;53.200;5.814;2023-01-19T00:52:48;13.75;;;1.40;;
59504;SDS011;45321;53.200;5.814;2023-01-19T00:55:15;7.95;;;0.88;;
59504;SDS011;45321;53.200;5.814;2023-01-19T00:57:41;4.10;;;0.90;;
59504;SDS011;45321;53.200;5.814;2023-01-19T01:00:08;9.35;;;1.40;;
59504;SDS011;45321;53.200;5.814;2023-01-19T01:02:39;7.50;;;0.90;;
59504;SDS011;45321;53.200;5.814;2023-01-19T01:05:06;12.20;;;2.22;;
59504;SDS011;45321;53.200;5.814;2023-01-19T01:07:32;9.07;;;1.40;;
59504;SDS011;45321;53.200;5.814;2023-01-19T01:10:08;9.73;;;1.55;;
59504;SDS011;45321;53.200;5.814;2023-01-19T01:12:35;9.18;;;1.10;;
59504;SDS011;45321;53.200;5.814;2023-01-19T01:15:01;10.60;;;2.05;;
59504;SDS011;45321;53.200;5.814;2023-01-19T01:17:27;8.13;;;1.48;;
59504;SDS011;45321;53.200;5.814;2023-01-19T01:19:53;6.90;;;1.05;;
59504;SDS011;45321;53.200;5.814;2023-01-19T01:22:19;8.80;;;0.98;;
59504;SDS011;45321;53.200;5.814;2023-01-19T01:24:45;5.53;;;0.80;;
59504;SDS011;45321;53.200;5.814;2023-01-19T01:27:10;3.97;;;0.75;;
59504;SDS011;45321;53.200;5.814;2023-01-19T01:29:37;6.88;;;1.40;;
59504;SDS011;45321;53.200;5.814;2023-01-19T01:32:05;7.30;;;0.73;;
59504;SDS011;45321;53.200;5.814;2023-01-19T01:34:32;10.07;;;0.88;;
59504;SDS011;45321;53.200;5.814;2023-01-19T01:36:58;8.75;;;1.13;;
59504;SDS011;45321;53.200;5.814;2023-01-19T01:39:24;8.80;;;0.82;;
59504;SDS011;45321;53.200;5.814;2023-01-19T01:41:50;8.27;;;0.88;;
59504;SDS011;45321;53.200;5.814;2023-01-19T01:44:41;7.28;;;0.93;;
59504;SDS011;45321;53.200;5.814;2023-01-19T01:49:51;6.47;;;0.77;;
59504;SDS011;45321;53.200;5.814;2023-01-19T01:52:19;7.68;;;1.20;;
59504;SDS011;45321;53.200;5.814;2023-01-19T01:54:46;10.07;;;1.05;;
59504;SDS011;45321;53.200;5.814;2023-01-19T01:57:12;6.18;;;1.05;;
59504;SDS011;45321;53.200;5.814;2023-01-19T01:59:39;6.78;;;0.88;;
59504;SDS011;45321;53.200;5.814;2023-01-19T02:02:17;5.82;;;0.60;;
59504;SDS011;45321;53.200;5.814;2023-01-19T02:05:26;12.43;;;1.17;;
59504;SDS011;45321;53.200;5.814;2023-01-19T02:10:45;6.65;;;0.75;;
59504;SDS011;45321;53.200;5.814;2023-01-19T02:13:30;8.60;;;1.00;;
59504;SDS011;45321;53.200;5.814;2023-01-19T02:16:00;7.90;;;0.80;;
59504;SDS011;45321;53.200;5.814;2023-01-19T02:18:30;7.80;;;1.15;;
59504;SDS011;45321;53.200;5.814;2023-01-19T02:21:03;8.00;;;0.82;;
59504;SDS011;45321;53.200;5.814;2023-01-19T02:26:04;8.60;;;0.95;;
59504;SDS011;45321;53.200;5.814;2023-01-19T02:28:33;7.30;;;1.13;;
59504;SDS011;45321;53.200;5.814;2023-01-19T02:31:05;8.32;;;0.85;;
59504;SDS011;45321;53.200;5.814;2023-01-19T02:33:31;8.93;;;1.27;;
59504;SDS011;45321;53.200;5.814;2023-01-19T02:35:57;9.43;;;1.08;;
59504;SDS011;45321;53.200;5.814;2023-01-19T02:38:25;7.30;;;0.88;;
59504;SDS011;45321;53.200;5.814;2023-01-19T02:40:56;6.50;;;0.95;;
59504;SDS011;45321;53.200;5.814;2023-01-19T02:43:24;7.13;;;1.25;;
59504;SDS011;45321;53.200;5.814;2023-01-19T02:45:50;5.95;;;0.73;;
59504;SDS011;45321;53.200;5.814;2023-01-19T02:48:17;5.65;;;0.85;;
59504;SDS011;45321;53.200;5.814;2023-01-19T02:50:44;6.70;;;0.65;;
59504;SDS011;45321;53.200;5.814;2023-01-19T03:04:51;8.15;;;1.00;;
59504;SDS011;45321;53.200;5.814;2023-01-19T03:12:47;13.70;;;1.10;;
59504;SDS011;45321;53.200;5.814;2023-01-19T03:15:21;12.00;;;1.90;;
59504;SDS011;45321;53.200;5.814;2023-01-19T03:17:52;7.15;;;1.80;;
59504;SDS011;45321;53.200;5.814;2023-01-19T03:20:23;12.82;;;1.42;;
59504;SDS011;45321;53.200;5.814;2023-01-19T03:22:53;12.15;;;1.83;;
59504;SDS011;45321;53.200;5.814;2023-01-19T03:25:24;11.57;;;1.77;;
59504;SDS011;45321;53.200;5.814;2023-01-19T03:27:52;12.23;;;1.90;;
59504;SDS011;45321;53.200;5.814;2023-01-19T03:30:23;13.90;;;1.60;;
59504;SDS011;45321;53.200;5.814;2023-01-19T03:32:58;13.60;;;1.80;;
59504;SDS011;45321;53.200;5.814;2023-01-19T03:35:30;12.77;;;1.58;;
59504;SDS011;45321;53.200;5.814;2023-01-19T03:37:59;13.20;;;1.10;;
59504;SDS011;45321;53.200;5.814;2023-01-19T03:40:32;10.02;;;1.10;;
59504;SDS011;45321;53.200;5.814;2023-01-19T03:43:01;10.27;;;1.35;;
59504;SDS011;45321;53.200;5.814;2023-01-19T03:45:28;17.80;;;1.48;;
59504;SDS011;45321;53.200;5.814;2023-01-19T03:47:56;10.20;;;1.33;;
59504;SDS011;45321;53.200;5.814;2023-01-19T03:50:27;15.73;;;1.92;;
59504;SDS011;45321;53.200;5.814;2023-01-19T03:53:03;15.40;;;1.60;;
59504;SDS011;45321;53.200;5.814;2023-01-19T03:55:34;15.25;;;1.83;;
59504;SDS011;45321;53.200;5.814;2023-01-19T03:58:03;10.80;;;1.38;;
59504;SDS011;45321;53.200;5.814;2023-01-19T04:00:29;11.02;;;1.15;;
59504;SDS011;45321;53.200;5.814;2023-01-19T04:02:54;11.23;;;1.40;;
59504;SDS011;45321;53.200;5.814;2023-01-19T04:05:20;14.55;;;1.33;;
59504;SDS011;45321;53.200;5.814;2023-01-19T04:07:47;10.57;;;1.15;;
59504;SDS011;45321;53.200;5.814;2023-01-19T04:10:15;13.75;;;1.17;;
59504;SDS011;45321;53.200;5.814;2023-01-19T04:12:42;16.23;;;1.52;;
59504;SDS011;45321;53.200;5.814;2023-01-19T04:15:08;14.02;;;2.67;;
59504;SDS011;45321;53.200;5.814;2023-01-19T04:17:33;8.88;;;1.98;;
59504;SDS011;45321;53.200;5.814;2023-01-19T04:19:59;5.05;;;1.27;;
59504;SDS011;45321;53.200;5.814;2023-01-19T04:22:25;8.02;;;0.70;;
59504;SDS011;45321;53.200;5.814;2023-01-19T04:24:51;5.55;;;0.90;;
59504;SDS011;45321;53.200;5.814;2023-01-19T04:27:16;4.05;;;0.40;;
59504;SDS011;45321;53.200;5.814;2023-01-19T04:29:43;5.20;;;0.90;;
59504;SDS011;45321;53.200;5.814;2023-01-19T04:32:08;6.28;;;0.82;;
59504;SDS011;45321;53.200;5.814;2023-01-19T04:34:34;7.20;;;1.27;;
59504;SDS011;45321;53.200;5.814;2023-01-19T04:37:00;6.25;;;0.68;;
59504;SDS011;45321;53.200;5.814;2023-01-19T04:39:26;8.80;;;0.90;;
59504;SDS011;45321;53.200;5.814;2023-01-19T04:41:52;8.57;;;0.85;;
59504;SDS011;45321;53.200;5.814;2023-01-19T04:44:18;10.63;;;1.08;;
59504;SDS011;45321;53.200;5.814;2023-01-19T04:46:43;8.88;;;1.13;;
59504;SDS011;45321;53.200;5.814;2023-01-19T04:49:09;9.68;;;1.35;;
59504;SDS011;45321;53.200;5.814;2023-01-19T04:51:35;7.45;;;1.52;;
59504;SDS011;45321;53.200;5.814;2023-01-19T04:54:01;10.30;;;1.35;;
59504;SDS011;45321;53.200;5.814;2023-01-19T04:56:28;5.20;;;0.80;;
59504;SDS011;45321;53.200;5.814;2023-01-19T04:58:53;6.25;;;0.80;;
59504;SDS011;45321;53.200;5.814;2023-01-19T05:01:19;5.43;;;0.95;;
59504;SDS011;45321;53.200;5.814;2023-01-19T05:03:45;8.07;;;1.45;;
59504;SDS011;45321;53.200;5.814;2023-01-19T05:06:11;10.48;;;2.00;;
59504;SDS011;45321;53.200;5.814;2023-01-19T05:08:42;10.82;;;1.67;;
59504;SDS011;45321;53.200;5.814;2023-01-19T05:11:08;12.00;;;1.25;;
59504;SDS011;45321;53.200;5.814;2023-01-19T05:13:33;10.32;;;1.25;;
59504;SDS011;45321;53.200;5.814;2023-01-19T05:15:59;7.10;;;1.10;;
59504;SDS011;45321;53.200;5.814;2023-01-19T05:18:25;11.75;;;1.50;;
59504;SDS011;45321;53.200;5.814;2023-01-19T05:20:51;9.88;;;1.40;;
59504;SDS011;45321;53.200;5.814;2023-01-19T05:23:20;8.25;;;1.20;;
59504;SDS011;45321;53.200;5.814;2023-01-19T05:25:46;8.38;;;0.88;;
59504;SDS011;45321;53.200;5.814;2023-01-19T05:28:11;13.13;;;1.15;;
59504;SDS011;45321;53.200;5.814;2023-01-19T05:30:37;10.77;;;1.88;;
59504;SDS011;45321;53.200;5.814;2023-01-19T05:33:03;13.50;;;2.20;;
59504;SDS011;45321;53.200;5.814;2023-01-19T05:35:29;9.75;;;1.35;;
59504;SDS011;45321;53.200;5.814;2023-01-19T05:37:55;14.32;;;1.95;;
59504;SDS011;45321;53.200;5.814;2023-01-19T05:40:20;12.45;;;1.50;;
59504;SDS011;45321;53.200;5.814;2023-01-19T05:42:46;19.95;;;2.47;;
59504;SDS011;45321;53.200;5.814;2023-01-19T05:45:12;19.48;;;3.13;;
59504;SDS011;45321;53.200;5.814;2023-01-19T05:47:38;19.77;;;2.00;;
59504;SDS011;45321;53.200;5.814;2023-01-19T05:50:04;13.52;;;1.50;;
59504;SDS011;45321;53.200;5.814;2023-01-19T05:52:30;9.30;;;1.48;;
59504;SDS011;45321;53.200;5.814;2023-01-19T05:54:56;11.45;;;1.42;;
59504;SDS011;45321;53.200;5.814;2023-01-19T05:57:21;12.10;;;1.65;;
59504;SDS011;45321;53.200;5.814;2023-01-19T05:59:47;13.43;;;1.60;;
59504;SDS011;45321;53.200;5.814;2023-01-19T06:02:13;23.83;;;3.50;;
59504;SDS011;45321;53.200;5.814;2023-01-19T06:04:39;22.08;;;2.55;;
59504;SDS011;45321;53.200;5.814;2023-01-19T06:07:05;16.73;;;1.88;;
59504;SDS011;45321;53.200;5.814;2023-01-19T06:09:31;16.48;;;2.17;;
59504;SDS011;45321;53.200;5.814;2023-01-19T06:11:57;11.57;;;1.33;;
59504;SDS011;45321;53.200;5.814;2023-01-19T06:14:24;19.77;;;4.35;;
59504;SDS011;45321;53.200;5.814;2023-01-19T06:16:50;13.13;;;2.50;;
59504;SDS011;45321;53.200;5.814;2023-01-19T06:19:16;13.02;;;1.60;;
59504;SDS011;45321;53.200;5.814;2023-01-19T06:21:42;14.25;;;1.73;;
59504;SDS011;45321;53.200;5.814;2023-01-19T06:24:13;11.98;;;1.27;;
59504;SDS011;45321;53.200;5.814;2023-01-19T06:26:39;11.60;;;1.55;;
59504;SDS011;45321;53.200;5.814;2023-01-19T06:29:07;14.75;;;2.58;;
59504;SDS011;45321;53.200;5.814;2023-01-19T06:31:34;18.40;;;2.13;;
59504;SDS011;45321;53.200;5.814;2023-01-19T06:34:00;17.42;;;2.35;;
59504;SDS011;45321;53.200;5.814;2023-01-19T06:36:26;15.95;;;2.05;;
59504;SDS011;45321;53.200;5.814;2023-01-19T06:38:52;13.48;;;2.13;;
59504;SDS011;45321;53.200;5.814;2023-01-19T06:41:17;19.15;;;2.20;;
59504;SDS011;45321;53.200;5.814;2023-01-19T06:43:43;15.38;;;2.55;;
59504;SDS011;45321;53.200;5.814;2023-01-19T06:46:09;21.80;;;2.85;;
59504;SDS011;45321;53.200;5.814;2023-01-19T06:48:34;20.92;;;3.47;;
59504;SDS011;45321;53.200;5.814;2023-01-19T06:51:00;17.83;;;3.20;;
59504;SDS011;45321;53.200;5.814;2023-01-19T06:53:26;16.67;;;2.63;;
59504;SDS011;45321;53.200;5.814;2023-01-19T06:55:53;16.58;;;2.70;;
59504;SDS011;45321;53.200;5.814;2023-01-19T06:58:26;14.43;;;2.33;;
59504;SDS011;45321;53.200;5.814;2023-01-19T07:00:59;23.35;;;3.00;;
59504;SDS011;45321;53.200;5.814;2023-01-19T07:03:27;16.27;;;2.13;;
59504;SDS011;45321;53.200;5.814;2023-01-19T07:05:53;18.35;;;2.45;;
59504;SDS011;45321;53.200;5.814;2023-01-19T07:08:19;20.55;;;2.78;;
59504;SDS011;45321;53.200;5.814;2023-01-19T07:10:44;22.80;;;2.58;;
59504;SDS011;45321;53.200;5.814;2023-01-19T07:13:10;24.17;;;3.47;;
59504;SDS011;45321;53.200;5.814;2023-01-19T07:15:36;16.90;;;2.85;;
59504;SDS011;45321;53.200;5.814;2023-01-19T07:18:03;15.55;;;1.95;;
59504;SDS011;45321;53.200;5.814;2023-01-19T07:20:34;24.25;;;2.42;;
59504;SDS011;45321;53.200;5.814;2023-01-19T07:23:00;20.40;;;2.75;;
59504;SDS011;45321;53.200;5.814;2023-01-19T07:25:27;14.65;;;1.80;;
59504;SDS011;45321;53.200;5.814;2023-01-19T07:27:59;13.48;;;1.88;;
59504;SDS011;45321;53.200;5.814;2023-01-19T07:30:25;16.92;;;2.58;;
59504;SDS011;45321;53.200;5.814;2023-01-19T07:32:55;13.95;;;3.10;;
59504;SDS011;45321;53.200;5.814;2023-01-19T07:35:21;19.35;;;2.58;;
59504;SDS011;45321;53.200;5.814;2023-01-19T07:37:50;22.90;;;3.40;;
59504;SDS011;45321;53.200;5.814;2023-01-19T07:40:16;28.80;;;4.18;;
59504;SDS011;45321;53.200;5.814;2023-01-19T07:42:48;21.92;;;3.58;;
59504;SDS011;45321;53.200;5.814;2023-01-19T07:45:16;19.77;;;4.15;;
59504;SDS011;45321;53.200;5.814;2023-01-19T07:47:44;16.73;;;3.05;;
59504;SDS011;45321;53.200;5.814;2023-01-19T07:50:13;20.92;;;3.67;;
59504;SDS011;45321;53.200;5.814;2023-01-19T07:52:39;15.18;;;2.75;;
59504;SDS011;45321;53.200;5.814;2023-01-19T07:55:06;22.60;;;3.17;;
59504;SDS011;45321;53.200;5.814;2023-01-19T07:57:32;16.40;;;2.78;;
59504;SDS011;45321;53.200;5.814;2023-01-19T07:59:59;22.63;;;3.83;;
59504;SDS011;45321;53.200;5.814;2023-01-19T08:02:24;15.93;;;2.95;;
59504;SDS011;45321;53.200;5.814;2023-01-19T08:04:50;23.75;;;3.15;;
59504;SDS011;45321;53.200;5.814;2023-01-19T08:07:16;19.83;;;2.85;;
59504;SDS011;45321;53.200;5.814;2023-01-19T08:09:42;21.85;;;2.95;;
59504;SDS011;45321;53.200;5.814;2023-01-19T08:12:08;23.58;;;2.95;;
59504;SDS011;45321;53.200;5.814;2023-01-19T08:14:34;21.70;;;2.60;;
59504;SDS011;45321;53.200;5.814;2023-01-19T08:16:59;17.63;;;2.63;;
59504;SDS011;45321;53.200;5.814;2023-01-19T08:19:25;19.48;;;3.08;;
59504;SDS011;45321;53.200;5.814;2023-01-19T08:21:52;18.33;;;2.75;;
59504;SDS011;45321;53.200;5.814;2023-01-19T08:24:19;19.20;;;3.35;;
59504;SDS011;45321;53.200;5.814;2023-01-19T08:26:47;14.02;;;2.75;;
59504;SDS011;45321;53.200;5.814;2023-01-19T08:29:13;19.45;;;3.03;;
59504;SDS011;45321;53.200;5.814;2023-01-19T08:31:39;16.48;;;3.00;;
59504;SDS011;45321;53.200;5.814;2023-01-19T08:34:05;21.67;;;3.10;;
59504;SDS011;45321;53.200;5.814;2023-01-19T08:36:32;24.05;;;2.92;;
59504;SDS011;45321;53.200;5.814;2023-01-19T08:38:58;19.80;;;2.83;;
59504;SDS011;45321;53.200;5.814;2023-01-19T08:41:24;17.38;;;3.05;;
59504;SDS011;45321;53.200;5.814;2023-01-19T08:43:50;16.67;;;2.53;;
59504;SDS011;45321;53.200;5.814;2023-01-19T08:46:16;10.10;;;1.77;;
59504;SDS011;45321;53.200;5.814;2023-01-19T08:48:44;9.68;;;2.30;;
59504;SDS011;45321;53.200;5.814;2023-01-19T08:51:12;12.77;;;1.85;;
59504;SDS011;45321;53.200;5.814;2023-01-19T08:53:39;17.95;;;2.13;;
59504;SDS011;45321;53.200;5.814;2023-01-19T08:56:07;13.10;;;2.60;;
59504;SDS011;45321;53.200;5.814;2023-01-19T08:58:40;13.90;;;1.83;;
59504;SDS011;45321;53.200;5.814;2023-01-19T09:01:07;10.55;;;2.15;;
59504;SDS011;45321;53.200;5.814;2023-01-19T09:03:36;14.70;;;2.10;;
59504;SDS011;45321;53.200;5.814;2023-01-19T09:06:05;13.43;;;2.97;;
59504;SDS011;45321;53.200;5.814;2023-01-19T09:08:32;13.55;;;1.83;;
59504;SDS011;45321;53.200;5.814;2023-01-19T09:10:58;14.10;;;2.03;;
59504;SDS011;45321;53.200;5.814;2023-01-19T09:13:24;11.95;;;2.58;;
59504;SDS011;45321;53.200;5.814;2023-01-19T09:15:50;9.52;;;1.98;;
59504;SDS011;45321;53.200;5.814;2023-01-19T09:18:17;14.70;;;2.13;;
59504;SDS011;45321;53.200;5.814;2023-01-19T09:20:45;16.52;;;2.15;;
59504;SDS011;45321;53.200;5.814;2023-01-19T09:23:13;14.18;;;2.50;;
59504;SDS011;45321;53.200;5.814;2023-01-19T09:25:41;17.35;;;3.17;;
59504;SDS011;45321;53.200;5.814;2023-01-19T09:28:09;18.83;;;4.30;;
59504;SDS011;45321;53.200;5.814;2023-01-19T09:30:37;20.00;;;3.88;;
59504;SDS011;45321;53.200;5.814;2023-01-19T09:33:08;15.00;;;2.55;;
59504;SDS011;45321;53.200;5.814;2023-01-19T09:35:36;20.92;;;2.83;;
59504;SDS011;45321;53.200;5.814;2023-01-19T09:38:03;11.73;;;1.88;;
59504;SDS011;45321;53.200;5.814;2023-01-19T09:40:29;13.68;;;2.28;;
59504;SDS011;45321;53.200;5.814;2023-01-19T09:42:56;22.20;;;2.25;;
59504;SDS011;45321;53.200;5.814;2023-01-19T09:45:46;17.25;;;1.80;;
59504;SDS011;45321;53.200;5.814;2023-01-19T09:48:41;16.55;;;2.55;;
59504;SDS011;45321;53.200;5.814;2023-01-19T09:51:24;9.18;;;1.60;;
59504;SDS011;45321;53.200;5.814;2023-01-19T09:56:41;13.43;;;1.58;;
59504;SDS011;45321;53.200;5.814;2023-01-19T10:04:54;7.25;;;1.20;;
59504;SDS011;45321;53.200;5.814;2023-01-19T10:10:19;12.07;;;1.50;;
59504;SDS011;45321;53.200;5.814;2023-01-19T10:18:28;8.45;;;1.63;;
59504;SDS011;45321;53.200;5.814;2023-01-19T10:21:37;11.13;;;1.80;;
59504;SDS011;45321;53.200;5.814;2023-01-19T10:27:26;14.02;;;2.47;;
59504;SDS011;45321;53.200;5.814;2023-01-19T10:29:54;10.82;;;2.65;;
59504;SDS011;45321;53.200;5.814;2023-01-19T10:32:26;10.10;;;3.00;;
59504;SDS011;45321;53.200;5.814;2023-01-19T10:34:57;20.20;;;5.85;;
59504;SDS011;45321;53.200;5.814;2023-01-19T10:37:32;15.18;;;3.45;;
59504;SDS011;45321;53.200;5.814;2023-01-19T10:42:33;12.02;;;1.60;;
59504;SDS011;45321;53.200;5.814;2023-01-19T10:44:59;7.75;;;1.35;;
59504;SDS011;45321;53.200;5.814;2023-01-19T10:47:29;9.35;;;1.77;;
59504;SDS011;45321;53.200;5.814;2023-01-19T10:50:01;10.23;;;2.03;;
59504;SDS011;45321;53.200;5.814;2023-01-19T10:52:52;9.52;;;4.43;;
59504;SDS011;45321;53.200;5.814;2023-01-19T10:55:27;13.75;;;2.42;;
59504;SDS011;45321;53.200;5.814;2023-01-19T10:57:55;10.98;;;4.90;;
59504;SDS011;45321;53.200;5.814;2023-01-19T11:05:48;9.48;;;2.10;;
59504;SDS011;45321;53.200;5.814;2023-01-19T11:08:48;14.23;;;2.72;;
59504;SDS011;45321;53.200;5.814;2023-01-19T11:11:07;15.68;;;2.72;;
59504;SDS011;45321;53.200;5.814;2023-01-19T11:13:42;9.73;;;1.42;;
59504;SDS011;45321;53.200;5.814;2023-01-19T11:18:53;5.50;;;1.35;;
59504;SDS011;45321;53.200;5.814;2023-01-19T11:21:24;12.43;;;1.60;;
59504;SDS011;45321;53.200;5.814;2023-01-19T11:23:55;10.27;;;1.38;;
59504;SDS011;45321;53.200;5.814;2023-01-19T11:26:24;7.20;;;0.93;;
59504;SDS011;45321;53.200;5.814;2023-01-19T11:29:20;8.07;;;1.30;;
59504;SDS011;45321;53.200;5.814;2023-01-19T11:31:51;6.95;;;1.73;;
59504;SDS011;45321;53.200;5.814;2023-01-19T11:36:56;4.53;;;0.77;;
59504;SDS011;45321;53.200;5.814;2023-01-19T11:39:24;7.38;;;0.90;;
59504;SDS011;45321;53.200;5.814;2023-01-19T11:41:53;10.38;;;1.05;;
59504;SDS011;45321;53.200;5.814;2023-01-19T11:46:57;4.30;;;1.00;;
59504;SDS011;45321;53.200;5.814;2023-01-19T11:49:45;9.32;;;1.15;;
59504;SDS011;45321;53.200;5.814;2023-01-19T11:55:06;6.07;;;1.25;;
59504;SDS011;45321;53.200;5.814;2023-01-19T11:57:45;7.38;;;1.85;;
59504;SDS011;45321;53.200;5.814;2023-01-19T12:05:32;9.02;;;2.10;;
59504;SDS011;45321;53.200;5.814;2023-01-19T12:07:59;5.75;;;1.60;;
59504;SDS011;45321;53.200;5.814;2023-01-19T12:10:29;7.28;;;1.63;;
59504;SDS011;45321;53.200;5.814;2023-01-19T12:12:59;10.73;;;1.75;;
59504;SDS011;45321;53.200;5.814;2023-01-19T12:15:42;6.70;;;1.83;;
59504;SDS011;45321;53.200;5.814;2023-01-19T12:18:20;17.83;;;2.13;;
59504;SDS011;45321;53.200;5.814;2023-01-19T12:20:49;8.88;;;1.30;;
59504;SDS011;45321;53.200;5.814;2023-01-19T12:23:28;8.32;;;1.73;;
59504;SDS011;45321;53.200;5.814;2023-01-19T12:28:47;10.98;;;2.17;;
59504;SDS011;45321;53.200;5.814;2023-01-19T12:31:15;9.18;;;1.70;;
59504;SDS011;45321;53.200;5.814;2023-01-19T12:33:42;6.88;;;1.27;;
59504;SDS011;45321;53.200;5.814;2023-01-19T12:38:41;14.40;;;4.60;;
59504;SDS011;45321;53.200;5.814;2023-01-19T12:46:44;14.18;;;3.60;;
59504;SDS011;45321;53.200;5.814;2023-01-19T12:49:25;10.90;;;3.50;;
59504;SDS011;45321;53.200;5.814;2023-01-19T12:55:14;12.13;;;2.95;;
59504;SDS011;45321;53.200;5.814;2023-01-19T12:57:37;9.75;;;2.00;;
59504;SDS011;45321;53.200;5.814;2023-01-19T13:03:40;7.85;;;1.27;;
59504;SDS011;45321;53.200;5.814;2023-01-19T13:13:24;6.95;;;1.50;;
59504;SDS011;45321;53.200;5.814;2023-01-19T13:15:50;9.77;;;1.70;;
59504;SDS011;45321;53.200;5.814;2023-01-19T13:18:17;7.00;;;1.20;;
59504;SDS011;45321;53.200;5.814;2023-01-19T13:26:26;13.18;;;1.80;;
59504;SDS011;45321;53.200;5.814;2023-01-19T13:28:55;10.13;;;1.45;;
59504;SDS011;45321;53.200;5.814;2023-01-19T13:31:28;5.78;;;1.10;;
59504;SDS011;45321;53.200;5.814;2023-01-19T13:34:02;8.70;;;1.42;;
59504;SDS011;45321;53.200;5.814;2023-01-19T13:36:34;7.13;;;1.30;;
59504;SDS011;45321;53.200;5.814;2023-01-19T13:39:04;6.60;;;1.40;;
59504;SDS011;45321;53.200;5.814;2023-01-19T13:41:34;5.70;;;1.33;;
59504;SDS011;45321;53.200;5.814;2023-01-19T13:44:12;9.05;;;1.63;;
59504;SDS011;45321;53.200;5.814;2023-01-19T13:46:42;11.02;;;2.03;;
59504;SDS011;45321;53.200;5.814;2023-01-19T13:51:43;10.10;;;1.95;;
59504;SDS011;45321;53.200;5.814;2023-01-19T13:54:13;7.45;;;2.20;;
59504;SDS011;45321;53.200;5.814;2023-01-19T13:56:45;8.43;;;1.60;;
59504;SDS011;45321;53.200;5.814;2023-01-19T13:59:14;11.05;;;2.90;;
59504;SDS011;45321;53.200;5.814;2023-01-19T14:01:44;9.43;;;2.22;;
59504;SDS011;45321;53.200;5.814;2023-01-19T14:04:23;9.00;;;1.90;;
59504;SDS011;45321;53.200;5.814;2023-01-19T14:06:49;10.65;;;2.40;;
59504;SDS011;45321;53.200;5.814;2023-01-19T14:09:19;10.45;;;2.13;;
59504;SDS011;45321;53.200;5.814;2023-01-19T14:14:34;9.85;;;2.10;;
59504;SDS011;45321;53.200;5.814;2023-01-19T14:17:00;11.38;;;2.55;;
59504;SDS011;45321;53.200;5.814;2023-01-19T14:19:29;10.98;;;2.15;;
59504;SDS011;45321;53.200;5.814;2023-01-19T14:23:02;5.82;;;1.30;;
59504;SDS011;45321;53.200;5.814;2023-01-19T14:25:31;6.18;;;1.80;;
59504;SDS011;45321;53.200;5.814;2023-01-19T14:31:24;4.38;;;0.93;;
59504;SDS011;45321;53.200;5.814;2023-01-19T14:33:53;5.10;;;1.00;;
59504;SDS011;45321;53.200;5.814;2023-01-19T14:38:54;7.25;;;1.40;;
59504;SDS011;45321;53.200;5.814;2023-01-19T14:41:34;7.68;;;1.17;;
59504;SDS011;45321;53.200;5.814;2023-01-19T14:44:09;7.53;;;0.82;;
59504;SDS011;45321;53.200;5.814;2023-01-19T14:46:44;3.80;;;1.23;;
59504;SDS011;45321;53.200;5.814;2023-01-19T14:49:12;8.25;;;1.25;;
59504;SDS011;45321;53.200;5.814;2023-01-19T14:51:44;5.45;;;1.20;;
59504;SDS011;45321;53.200;5.814;2023-01-19T14:54:16;8.13;;;1.30;;
59504;SDS011;45321;53.200;5.814;2023-01-19T14:56:47;6.28;;;1.45;;
59504;SDS011;45321;53.200;5.814;2023-01-19T14:59:13;4.72;;;1.20;;
59504;SDS011;45321;53.200;5.814;2023-01-19T15:01:39;3.13;;;1.20;;
59504;SDS011;45321;53.200;5.814;2023-01-19T15:04:04;4.65;;;0.95;;
59504;SDS011;45321;53.200;5.814;2023-01-19T15:06:30;7.95;;;1.38;;
59504;SDS011;45321;53.200;5.814;2023-01-19T15:08:58;6.82;;;0.90;;
59504;SDS011;45321;53.200;5.814;2023-01-19T15:11:30;2.90;;;0.82;;
59504;SDS011;45321;53.200;5.814;2023-01-19T15:13:58;5.13;;;1.33;;
59504;SDS011;45321;53.200;5.814;2023-01-19T15:16:25;8.52;;;1.08;;
59504;SDS011;45321;53.200;5.814;2023-01-19T15:18:53;6.95;;;1.10;;
59504;SDS011;45321;53.200;5.814;2023-01-19T15:21:19;10.32;;;1.67;;
59504;SDS011;45321;53.200;5.814;2023-01-19T15:23:50;6.85;;;1.30;;
59504;SDS011;45321;53.200;5.814;2023-01-19T15:26:19;11.45;;;2.65;;
59504;SDS011;45321;53.200;5.814;2023-01-19T15:28:49;8.57;;;1.92;;
59504;SDS011;45321;53.200;5.814;2023-01-19T15:31:16;11.30;;;2.33;;
59504;SDS011;45321;53.200;5.814;2023-01-19T15:33:44;12.85;;;2.20;;
59504;SDS011;45321;53.200;5.814;2023-01-19T15:36:13;4.70;;;1.88;;
59504;SDS011;45321;53.200;5.814;2023-01-19T15:38:41;5.72;;;1.75;;
59504;SDS011;45321;53.200;5.814;2023-01-19T15:41:14;5.85;;;1.77;;
59504;SDS011;45321;53.200;5.814;2023-01-19T15:43:50;5.88;;;1.58;;
59504;SDS011;45321;53.200;5.814;2023-01-19T15:46:17;6.07;;;1.98;;
59504;SDS011;45321;53.200;5.814;2023-01-19T15:48:45;6.90;;;2.08;;
59504;SDS011;45321;53.200;5.814;2023-01-19T15:51:12;9.55;;;3.22;;
59504;SDS011;45321;53.200;5.814;2023-01-19T15:53:39;9.05;;;2.95;;
59504;SDS011;45321;53.200;5.814;2023-01-19T15:56:05;11.15;;;3.05;;
59504;SDS011;45321;53.200;5.814;2023-01-19T15:58:35;7.32;;;2.38;;
59504;SDS011;45321;53.200;5.814;2023-01-19T16:01:01;5.60;;;2.40;;
59504;SDS011;45321;53.200;5.814;2023-01-19T16:03:27;7.53;;;2.30;;
59504;SDS011;45321;53.200;5.814;2023-01-19T16:05:53;8.50;;;1.92;;
59504;SDS011;45321;53.200;5.814;2023-01-19T16:08:19;7.10;;;4.30;;
59504;SDS011;45321;53.200;5.814;2023-01-19T16:10:46;9.05;;;6.22;;
59504;SDS011;45321;53.200;5.814;2023-01-19T16:13:12;8.10;;;4.60;;
59504;SDS011;45321;53.200;5.814;2023-01-19T16:15:38;7.10;;;3.58;;
59504;SDS011;45321;53.200;5.814;2023-01-19T16:18:06;5.97;;;3.38;;
59504;SDS011;45321;53.200;5.814;2023-01-19T16:20:32;10.95;;;4.75;;
59504;SDS011;45321;53.200;5.814;2023-01-19T16:22:58;8.63;;;4.28;;
59504;SDS011;45321;53.200;5.814;2023-01-19T16:25:24;6.00;;;3.53;;
59504;SDS011;45321;53.200;5.814;2023-01-19T16:27:50;6.20;;;4.05;;
59504;SDS011;45321;53.200;5.814;2023-01-19T16:30:15;10.75;;;4.20;;
59504;SDS011;45321;53.200;5.814;2023-01-19T16:32:43;5.80;;;2.45;;
59504;SDS011;45321;53.200;5.814;2023-01-19T16:35:09;8.27;;;3.25;;
59504;SDS011;45321;53.200;5.814;2023-01-19T16:37:35;8.52;;;2.78;;
59504;SDS011;45321;53.200;5.814;2023-01-19T16:40:04;12.15;;;3.13;;
59504;SDS011;45321;53.200;5.814;2023-01-19T16:42:30;11.63;;;2.20;;